sensor_id;sensor_type;location;lat;lon;timestamp;pressure;altitude;pressure_sealevel;temperature;humidity
51249;BME280;39642;47.556;18.728;2023-05-02T00:00:37;99653.06;;;20.82;32.85
51249;BME280;39642;47.556;18.728;2023-05-02T00:03:03;99648.72;;;20.81;32.89
51249;BME280;39642;47.556;18.728;2023-05-02T00:05:30;99658.34;;;20.82;32.24
51249;BME280;39642;47.556;18.728;2023-05-02T00:07:56;99648.72;;;20.81;32.20
51249;BME280;39642;47.556;18.728;2023-05-02T00:10:22;99659.31;;;20.81;33.10
51249;BME280;39642;47.556;18.728;2023-05-02T00:12:48;99656.66;;;20.81;32.48
51249;BME280;39642;47.556;18.728;2023-05-02T00:15:14;99652.31;;;20.79;33.04
51249;BME280;39642;47.556;18.728;2023-05-02T00:17:40;99649.66;;;20.79;32.79
51249;BME280;39642;47.556;18.728;2023-05-02T00:20:10;99647.84;;;20.80;32.90
51249;BME280;39642;47.556;18.728;2023-05-02T00:22:36;99648.72;;;20.81;32.98
51249;BME280;39642;47.556;18.728;2023-05-02T00:25:03;99647.00;;;20.79;32.60
51249;BME280;39642;47.556;18.728;2023-05-02T00:27:29;99646.16;;;20.79;32.56
51249;BME280;39642;47.556;18.728;2023-05-02T00:29:56;99653.16;;;20.80;32.84
51249;BME280;39642;47.556;18.728;2023-05-02T00:32:24;99643.53;;;20.79;32.71
51249;BME280;39642;47.556;18.728;2023-05-02T00:34:50;99650.63;;;20.78;32.60
51249;BME280;39642;47.556;18.728;2023-05-02T00:37:16;99651.47;;;20.79;32.84
51249;BME280;39642;47.556;18.728;2023-05-02T00:39:41;99641.72;;;20.79;32.81
51249;BME280;39642;47.556;18.728;2023-05-02T00:42:07;99642.69;;;20.78;32.43
51249;BME280;39642;47.556;18.728;2023-05-02T00:44:33;99639.16;;;20.78;32.75
51249;BME280;39642;47.556;18.728;2023-05-02T00:47:00;99642.69;;;20.78;32.79
51249;BME280;39642;47.556;18.728;2023-05-02T00:49:26;99650.63;;;20.78;32.38
51249;BME280;39642;47.556;18.728;2023-05-02T00:51:53;99647.09;;;20.78;32.54
51249;BME280;39642;47.556;18.728;2023-05-02T00:54:19;99645.34;;;20.78;32.56
51249;BME280;39642;47.556;18.728;2023-05-02T00:56:45;99647.97;;;20.78;32.78
51249;BME280;39642;47.556;18.728;2023-05-02T00:59:12;99650.63;;;20.78;32.63
51249;BME280;39642;47.556;18.728;2023-05-02T01:04:46;99650.63;;;20.78;32.75
51249;BME280;39642;47.556;18.728;2023-05-02T01:07:34;99655.03;;;20.78;33.13
51249;BME280;39642;47.556;18.728;2023-05-02T01:10:22;99652.41;;;20.78;32.68
51249;BME280;39642;47.556;18.728;2023-05-02T01:13:06;99651.56;;;20.77;32.58
51249;BME280;39642;47.556;18.728;2023-05-02T01:15:34;99652.41;;;20.78;32.70
51249;BME280;39642;47.556;18.728;2023-05-02T01:18:04;99653.34;;;20.77;32.55
51249;BME280;39642;47.556;18.728;2023-05-02T01:20:35;99648.91;;;20.77;32.82
51249;BME280;39642;47.556;18.728;2023-05-02T01:23:08;99648.06;;;20.77;32.96
51249;BME280;39642;47.556;18.728;2023-05-02T01:25:51;99637.47;;;20.77;32.46
51249;BME280;39642;47.556;18.728;2023-05-02T01:31:25;99635.66;;;20.77;33.15
51249;BME280;39642;47.556;18.728;2023-05-02T01:33:53;99633.13;;;20.76;32.66
51249;BME280;39642;47.556;18.728;2023-05-02T01:36:22;99637.47;;;20.77;32.89
51249;BME280;39642;47.556;18.728;2023-05-02T01:38:50;99635.75;;;20.76;33.06
51249;BME280;39642;47.556;18.728;2023-05-02T01:41:18;99630.47;;;20.76;32.75
51249;BME280;39642;47.556;18.728;2023-05-02T01:43:46;99636.63;;;20.76;33.01
51249;BME280;39642;47.556;18.728;2023-05-02T01:46:13;99631.34;;;20.76;32.86
51249;BME280;39642;47.556;18.728;2023-05-02T01:48:43;99629.63;;;20.75;32.80
51249;BME280;39642;47.556;18.728;2023-05-02T01:51:10;99624.34;;;20.75;32.75
51249;BME280;39642;47.556;18.728;2023-05-02T01:53:37;99624.34;;;20.75;32.92
51249;BME280;39642;47.556;18.728;2023-05-02T01:56:04;99631.34;;;20.76;32.78
51249;BME280;39642;47.556;18.728;2023-05-02T01:58:31;99631.34;;;20.76;32.53
51249;BME280;39642;47.556;18.728;2023-05-02T02:00:59;99626.03;;;20.76;33.01
51249;BME280;39642;47.556;18.728;2023-05-02T02:03:28;99621.69;;;20.75;33.05
51249;BME280;39642;47.556;18.728;2023-05-02T02:05:57;99626.97;;;20.75;33.24
51249;BME280;39642;47.556;18.728;2023-05-02T02:08:24;99623.41;;;20.76;32.63
51249;BME280;39642;47.556;18.728;2023-05-02T02:10:56;99622.53;;;20.76;33.13
51249;BME280;39642;47.556;18.728;2023-05-02T02:13:30;99618.19;;;20.75;32.95
51249;BME280;39642;47.556;18.728;2023-05-02T02:16:00;99618.19;;;20.75;32.78
51249;BME280;39642;47.556;18.728;2023-05-02T02:18:31;99617.34;;;20.74;32.92
51249;BME280;39642;47.556;18.728;2023-05-02T02:21:00;99612.91;;;20.75;33.28
51249;BME280;39642;47.556;18.728;2023-05-02T02:23:27;99614.72;;;20.74;33.44
51249;BME280;39642;47.556;18.728;2023-05-02T02:25:55;99620.84;;;20.75;33.22
51249;BME280;39642;47.556;18.728;2023-05-02T02:28:22;99617.34;;;20.74;33.21
51249;BME280;39642;47.556;18.728;2023-05-02T02:30:48;99613.88;;;20.74;33.29
51249;BME280;39642;47.556;18.728;2023-05-02T02:33:14;99610.34;;;20.73;33.15
51249;BME280;39642;47.556;18.728;2023-05-02T02:35:50;99613.00;;;20.73;32.95
51249;BME280;39642;47.556;18.728;2023-05-02T02:38:25;99615.62;;;20.73;32.97
51249;BME280;39642;47.556;18.728;2023-05-02T02:41:21;99608.56;;;20.74;33.45
51249;BME280;39642;47.556;18.728;2023-05-02T02:51:38;99611.31;;;20.72;33.16
51249;BME280;39642;47.556;18.728;2023-05-02T02:54:13;99613.94;;;20.72;33.28
51249;BME280;39642;47.556;18.728;2023-05-02T02:56:46;99606.84;;;20.73;33.50
51249;BME280;39642;47.556;18.728;2023-05-02T02:59:18;99610.47;;;20.72;33.44
51249;BME280;39642;47.556;18.728;2023-05-02T03:02:04;99612.22;;;20.71;33.53
51249;BME280;39642;47.556;18.728;2023-05-02T03:04:33;99613.09;;;20.72;33.76
51249;BME280;39642;47.556;18.728;2023-05-02T03:06:59;99608.66;;;20.72;33.65
51249;BME280;39642;47.556;18.728;2023-05-02T03:09:26;99616.69;;;20.71;33.49
51249;BME280;39642;47.556;18.728;2023-05-02T03:11:55;99617.53;;;20.71;33.40
51249;BME280;39642;47.556;18.728;2023-05-02T03:14:22;99614.88;;;20.71;33.69
51249;BME280;39642;47.556;18.728;2023-05-02T03:16:48;99614.88;;;20.71;33.63
51249;BME280;39642;47.556;18.728;2023-05-02T03:19:14;99619.31;;;20.71;33.68
51249;BME280;39642;47.556;18.728;2023-05-02T03:21:40;99622.81;;;20.71;33.67
51249;BME280;39642;47.556;18.728;2023-05-02T03:24:07;99624.62;;;20.71;33.39
51249;BME280;39642;47.556;18.728;2023-05-02T03:26:33;99625.47;;;20.71;33.38
51249;BME280;39642;47.556;18.728;2023-05-02T03:28:59;99624.62;;;20.71;33.83
51249;BME280;39642;47.556;18.728;2023-05-02T03:31:24;99629.06;;;20.70;33.59
51249;BME280;39642;47.556;18.728;2023-05-02T03:33:50;99633.50;;;20.70;33.91
51249;BME280;39642;47.556;18.728;2023-05-02T03:36:17;99624.72;;;20.69;33.68
51249;BME280;39642;47.556;18.728;2023-05-02T03:38:43;99629.06;;;20.70;34.07
51249;BME280;39642;47.556;18.728;2023-05-02T03:41:09;99631.72;;;20.70;34.15
51249;BME280;39642;47.556;18.728;2023-05-02T03:43:35;99635.31;;;20.69;33.93
51249;BME280;39642;47.556;18.728;2023-05-02T03:46:07;99637.00;;;20.70;34.10
51249;BME280;39642;47.556;18.728;2023-05-02T03:48:34;99634.34;;;20.70;34.25
51249;BME280;39642;47.556;18.728;2023-05-02T03:51:01;99626.50;;;20.69;33.86
51249;BME280;39642;47.556;18.728;2023-05-02T03:53:29;99636.16;;;20.70;34.06
51249;BME280;39642;47.556;18.728;2023-05-02T03:55:56;99635.19;;;20.71;35.89
51249;BME280;39642;47.556;18.728;2023-05-02T03:58:22;99636.16;;;20.70;36.20
51249;BME280;39642;47.556;18.728;2023-05-02T04:00:50;99635.31;;;20.69;34.33
51249;BME280;39642;47.556;18.728;2023-05-02T04:03:17;99639.72;;;20.69;34.12
51249;BME280;39642;47.556;18.728;2023-05-02T04:05:43;99631.78;;;20.69;33.89
51249;BME280;39642;47.556;18.728;2023-05-02T04:08:09;99639.72;;;20.69;34.08
51249;BME280;39642;47.556;18.728;2023-05-02T04:10:35;99643.25;;;20.69;34.27
51249;BME280;39642;47.556;18.728;2023-05-02T04:13:02;99646.75;;;20.70;35.38
51249;BME280;39642;47.556;18.728;2023-05-02T04:15:28;99648.44;;;20.71;36.21
51249;BME280;39642;47.556;18.728;2023-05-02T04:17:56;99650.22;;;20.70;35.87
51249;BME280;39642;47.556;18.728;2023-05-02T04:20:22;99647.66;;;20.69;36.19
51249;BME280;39642;47.556;18.728;2023-05-02T04:22:48;99652.13;;;20.68;36.08
51249;BME280;39642;47.556;18.728;2023-05-02T04:25:15;99659.13;;;20.69;35.45
51249;BME280;39642;47.556;18.728;2023-05-02T04:27:41;99652.19;;;20.67;35.58
51249;BME280;39642;47.556;18.728;2023-05-02T04:30:08;99656.56;;;20.68;36.05
51249;BME280;39642;47.556;18.728;2023-05-02T04:32:35;99653.91;;;20.68;36.20
51249;BME280;39642;47.556;18.728;2023-05-02T04:35:01;99662.69;;;20.68;36.18
51249;BME280;39642;47.556;18.728;2023-05-02T04:37:27;99657.41;;;20.68;36.06
51249;BME280;39642;47.556;18.728;2023-05-02T04:39:53;99660.91;;;20.69;36.29
51249;BME280;39642;47.556;18.728;2023-05-02T04:42:19;99659.13;;;20.69;36.19
51249;BME280;39642;47.556;18.728;2023-05-02T04:44:45;99664.41;;;20.69;36.01
51249;BME280;39642;47.556;18.728;2023-05-02T04:47:11;99667.06;;;20.69;36.21
51249;BME280;39642;47.556;18.728;2023-05-02T04:49:36;99665.25;;;20.70;36.23
51249;BME280;39642;47.556;18.728;2023-05-02T04:52:02;99671.41;;;20.70;36.12
51249;BME280;39642;47.556;18.728;2023-05-02T04:54:28;99674.88;;;20.71;36.06
51249;BME280;39642;47.556;18.728;2023-05-02T04:56:54;99669.59;;;20.71;37.30
51249;BME280;39642;47.556;18.728;2023-05-02T04:59:20;99669.59;;;20.71;36.76
51249;BME280;39642;47.556;18.728;2023-05-02T05:01:46;99668.75;;;20.70;36.24
51249;BME280;39642;47.556;18.728;2023-05-02T05:04:12;99681.91;;;20.72;35.69
51249;BME280;39642;47.556;18.728;2023-05-02T05:06:38;99673.09;;;20.71;36.50
51249;BME280;39642;47.556;18.728;2023-05-02T05:09:03;99675.66;;;20.73;36.31
51249;BME280;39642;47.556;18.728;2023-05-02T05:11:29;99669.44;;;20.74;36.58
51249;BME280;39642;47.556;18.728;2023-05-02T05:13:55;99681.69;;;20.75;36.54
51249;BME280;39642;47.556;18.728;2023-05-02T05:16:21;99685.19;;;20.75;37.95
51249;BME280;39642;47.556;18.728;2023-05-02T05:18:47;99688.69;;;20.76;38.16
51249;BME280;39642;47.556;18.728;2023-05-02T05:21:14;99688.69;;;20.76;38.29
51249;BME280;39642;47.556;18.728;2023-05-02T05:23:39;99693.97;;;20.76;38.86
51249;BME280;39642;47.556;18.728;2023-05-02T05:26:11;99700.97;;;20.77;39.61
51249;BME280;39642;47.556;18.728;2023-05-02T05:28:37;99693.81;;;20.79;40.18
51249;BME280;39642;47.556;18.728;2023-05-02T05:31:05;99707.50;;;20.86;40.51
51249;BME280;39642;47.556;18.728;2023-05-02T05:33:32;99705.22;;;20.94;38.95
51249;BME280;39642;47.556;18.728;2023-05-02T05:38:30;99716.69;;;20.94;39.42
51249;BME280;39642;47.556;18.728;2023-05-02T05:40:56;99714.97;;;20.93;38.59
51249;BME280;39642;47.556;18.728;2023-05-02T05:43:22;99717.06;;;20.88;39.01
51249;BME280;39642;47.556;18.728;2023-05-02T05:45:51;99714.69;;;20.84;38.77
51249;BME280;39642;47.556;18.728;2023-05-02T05:48:17;99723.00;;;20.77;39.13
51249;BME280;39642;47.556;18.728;2023-05-02T05:50:42;99718.53;;;20.78;39.41
51249;BME280;39642;47.556;18.728;2023-05-02T05:53:08;99717.53;;;20.81;39.03
51249;BME280;39642;47.556;18.728;2023-05-02T05:55:34;99720.06;;;20.82;37.19
51249;BME280;39642;47.556;18.728;2023-05-02T05:58:01;99723.47;;;20.84;37.39
51249;BME280;39642;47.556;18.728;2023-05-02T06:00:27;99725.06;;;20.87;37.79
51249;BME280;39642;47.556;18.728;2023-05-02T06:02:53;99726.81;;;20.88;38.39
51249;BME280;39642;47.556;18.728;2023-05-02T06:05:19;99727.66;;;20.88;38.76
51249;BME280;39642;47.556;18.728;2023-05-02T06:07:44;99721.38;;;20.89;39.21
51249;BME280;39642;47.556;18.728;2023-05-02T06:10:10;99728.31;;;20.92;38.97
51249;BME280;39642;47.556;18.728;2023-05-02T06:12:36;99730.78;;;20.95;38.00
51249;BME280;39642;47.556;18.728;2023-05-02T06:15:02;99724.34;;;20.99;37.91
51249;BME280;39642;47.556;18.728;2023-05-02T06:17:28;99725.09;;;21.01;37.81
51249;BME280;39642;47.556;18.728;2023-05-02T06:19:54;99729.44;;;21.02;38.00
51249;BME280;39642;47.556;18.728;2023-05-02T06:22:20;99728.50;;;21.03;37.95
51249;BME280;39642;47.556;18.728;2023-05-02T06:24:46;99734.66;;;21.04;38.26
51249;BME280;39642;47.556;18.728;2023-05-02T06:27:12;99732.84;;;21.04;38.10
51249;BME280;39642;47.556;18.728;2023-05-02T06:29:38;99725.88;;;21.03;38.08
51249;BME280;39642;47.556;18.728;2023-05-02T06:32:04;99728.31;;;21.06;37.97
51249;BME280;39642;47.556;18.728;2023-05-02T06:34:33;99732.56;;;21.09;38.00
51249;BME280;39642;47.556;18.728;2023-05-02T06:36:59;99734.06;;;21.13;37.90
51249;BME280;39642;47.556;18.728;2023-05-02T06:39:24;99734.84;;;21.15;37.82
51249;BME280;39642;47.556;18.728;2023-05-02T06:41:50;99739.84;;;21.19;37.83
51249;BME280;39642;47.556;18.728;2023-05-02T06:44:20;99741.44;;;21.22;37.71
51249;BME280;39642;47.556;18.728;2023-05-02T06:46:46;99742.13;;;21.26;37.44
51249;BME280;39642;47.556;18.728;2023-05-02T06:49:12;99740.78;;;21.33;37.97
51249;BME280;39642;47.556;18.728;2023-05-02T06:51:38;99738.12;;;21.33;38.13
51249;BME280;39642;47.556;18.728;2023-05-02T06:54:04;99739.28;;;21.29;38.41
51249;BME280;39642;47.556;18.728;2023-05-02T06:56:30;99738.44;;;21.28;38.79
51249;BME280;39642;47.556;18.728;2023-05-02T06:58:56;99740.03;;;21.31;39.06
51249;BME280;39642;47.556;18.728;2023-05-02T07:01:22;99741.72;;;21.32;39.01
51249;BME280;39642;47.556;18.728;2023-05-02T07:03:48;99745.12;;;21.34;39.11
51249;BME280;39642;47.556;18.728;2023-05-02T07:06:14;99738.88;;;21.35;38.78
51249;BME280;39642;47.556;18.728;2023-05-02T07:08:40;99745.12;;;21.34;38.49
51249;BME280;39642;47.556;18.728;2023-05-02T07:11:07;99740.78;;;21.33;38.41
51249;BME280;39642;47.556;18.728;2023-05-02T07:13:33;99747.13;;;21.30;38.55
51249;BME280;39642;47.556;18.728;2023-05-02T07:15:59;99738.44;;;21.28;38.30
51249;BME280;39642;47.556;18.728;2023-05-02T07:18:25;99742.75;;;21.29;38.24
51249;BME280;39642;47.556;18.728;2023-05-02T07:20:51;99742.75;;;21.29;38.15
51249;BME280;39642;47.556;18.728;2023-05-02T07:23:16;99738.31;;;21.30;37.66
51249;BME280;39642;47.556;18.728;2023-05-02T07:25:42;99739.81;;;21.34;37.12
51249;BME280;39642;47.556;18.728;2023-05-02T07:28:08;99734.44;;;21.35;36.58
51249;BME280;39642;47.556;18.728;2023-05-02T07:30:34;99734.22;;;21.38;36.09
51249;BME280;39642;47.556;18.728;2023-05-02T07:33:00;99736.03;;;21.38;35.87
51249;BME280;39642;47.556;18.728;2023-05-02T07:35:26;99738.69;;;21.38;36.02
51249;BME280;39642;47.556;18.728;2023-05-02T07:37:52;99749.28;;;21.38;36.38
51249;BME280;39642;47.556;18.728;2023-05-02T07:40:18;99736.25;;;21.35;37.23
51249;BME280;39642;47.556;18.728;2023-05-02T07:42:44;99749.56;;;21.33;36.82
51249;BME280;39642;47.556;18.728;2023-05-02T07:45:09;99741.41;;;21.36;36.81
51249;BME280;39642;47.556;18.728;2023-05-02T07:47:35;99742.87;;;21.42;36.84
51249;BME280;39642;47.556;18.728;2023-05-02T07:50:02;99737.59;;;21.42;37.05
51249;BME280;39642;47.556;18.728;2023-05-02T07:52:31;99742.03;;;21.41;36.92
51249;BME280;39642;47.556;18.728;2023-05-02T07:54:57;99738.59;;;21.39;36.99
51249;BME280;39642;47.556;18.728;2023-05-02T07:57:23;99743.81;;;21.41;37.91
51249;BME280;39642;47.556;18.728;2023-05-02T07:59:50;99741.25;;;21.54;37.17
51249;BME280;39642;47.556;18.728;2023-05-02T08:02:15;99746.25;;;21.58;37.25
51249;BME280;39642;47.556;18.728;2023-05-02T08:04:45;99748.59;;;21.63;37.66
51249;BME280;39642;47.556;18.728;2023-05-02T08:07:12;99752.97;;;21.64;36.45
51249;BME280;39642;47.556;18.728;2023-05-02T08:09:38;99750.41;;;21.62;36.66
51249;BME280;39642;47.556;18.728;2023-05-02T08:12:04;99749.66;;;21.60;36.75
51249;BME280;39642;47.556;18.728;2023-05-02T08:14:30;99744.34;;;21.60;37.13
51249;BME280;39642;47.556;18.728;2023-05-02T08:16:57;99744.91;;;21.66;36.97
51249;BME280;39642;47.556;18.728;2023-05-02T08:19:23;99751.16;;;21.65;37.31
51249;BME280;39642;47.556;18.728;2023-05-02T08:21:49;99752.78;;;21.67;36.64
51249;BME280;39642;47.556;18.728;2023-05-02T08:24:15;99751.94;;;21.67;36.29
51249;BME280;39642;47.556;18.728;2023-05-02T08:26:41;99750.41;;;21.62;36.42
51249;BME280;39642;47.556;18.728;2023-05-02T08:29:06;99740.09;;;21.58;36.85
51249;BME280;39642;47.556;18.728;2023-05-02T08:31:32;99749.09;;;21.55;36.66
51249;BME280;39642;47.556;18.728;2023-05-02T08:33:58;99753.66;;;21.53;37.36
51249;BME280;39642;47.556;18.728;2023-05-02T08:36:24;99749.09;;;21.55;36.96
51249;BME280;39642;47.556;18.728;2023-05-02T08:38:50;99757.81;;;21.57;36.84
51249;BME280;39642;47.556;18.728;2023-05-02T08:41:17;99752.22;;;21.62;36.66
51249;BME280;39642;47.556;18.728;2023-05-02T08:43:44;99745.31;;;21.59;36.95
51249;BME280;39642;47.556;18.728;2023-05-02T08:46:13;99748.91;;;21.58;37.51
51249;BME280;39642;47.556;18.728;2023-05-02T08:48:40;99739.06;;;21.60;37.81
51249;BME280;39642;47.556;18.728;2023-05-02T08:51:14;99743.13;;;21.66;37.19
51249;BME280;39642;47.556;18.728;2023-05-02T08:53:40;99742.09;;;21.69;36.86
51249;BME280;39642;47.556;18.728;2023-05-02T08:56:07;99741.03;;;21.71;36.27
51249;BME280;39642;47.556;18.728;2023-05-02T08:58:38;99733.16;;;21.70;36.17
51249;BME280;39642;47.556;18.728;2023-05-02T09:01:17;99733.38;;;21.67;37.39
51249;BME280;39642;47.556;18.728;2023-05-02T09:03:45;99738.69;;;21.67;36.30
51249;BME280;39642;47.556;18.728;2023-05-02T09:06:19;99733.38;;;21.67;36.24
51249;BME280;39642;47.556;18.728;2023-05-02T09:08:47;99719.37;;;21.65;36.23
51249;BME280;39642;47.556;18.728;2023-05-02T09:11:14;99725.72;;;21.62;37.12
51249;BME280;39642;47.556;18.728;2023-05-02T09:13:42;99736.31;;;21.62;36.85
51249;BME280;39642;47.556;18.728;2023-05-02T09:16:10;99734.59;;;21.61;37.26
51249;BME280;39642;47.556;18.728;2023-05-02T09:18:44;99736.41;;;21.60;37.17
51249;BME280;39642;47.556;18.728;2023-05-02T09:21:17;99734.72;;;21.59;36.77
51249;BME280;39642;47.556;18.728;2023-05-02T09:23:46;99738.31;;;21.58;36.67
51249;BME280;39642;47.556;18.728;2023-05-02T09:26:32;99740.09;;;21.58;36.75
51249;BME280;39642;47.556;18.728;2023-05-02T09:29:03;99734.13;;;21.54;36.80
51249;BME280;39642;47.556;18.728;2023-05-02T09:31:35;99729.25;;;21.48;37.21
51249;BME280;39642;47.556;18.728;2023-05-02T09:34:10;99724.34;;;21.42;37.51
51249;BME280;39642;47.556;18.728;2023-05-02T09:36:41;99724.47;;;21.39;37.59
51249;BME280;39642;47.556;18.728;2023-05-02T09:39:09;99714.09;;;21.36;37.66
51249;BME280;39642;47.556;18.728;2023-05-02T09:41:44;99722.88;;;21.36;37.48
51249;BME280;39642;47.556;18.728;2023-05-02T09:44:16;99727.13;;;21.39;37.67
51249;BME280;39642;47.556;18.728;2023-05-02T09:46:47;99722.44;;;21.44;38.13
51249;BME280;39642;47.556;18.728;2023-05-02T09:49:13;99731.63;;;21.53;38.64
51249;BME280;39642;47.556;18.728;2023-05-02T09:51:39;99734.31;;;21.66;38.20
51249;BME280;39642;47.556;18.728;2023-05-02T09:54:06;99729.16;;;21.77;38.50
51249;BME280;39642;47.556;18.728;2023-05-02T09:56:50;99726.50;;;21.77;37.98
51249;BME280;39642;47.556;18.728;2023-05-02T09:59:16;99718.97;;;21.71;38.00
51249;BME280;39642;47.556;18.728;2023-05-02T10:01:42;99725.50;;;21.65;37.87
51249;BME280;39642;47.556;18.728;2023-05-02T10:04:11;99716.91;;;21.61;37.83
51249;BME280;39642;47.556;18.728;2023-05-02T10:06:44;99717.19;;;21.57;37.72
51249;BME280;39642;47.556;18.728;2023-05-02T10:09:10;99713.16;;;21.51;37.41
51249;BME280;39642;47.556;18.728;2023-05-02T10:11:38;99716.84;;;21.49;37.98
51249;BME280;39642;47.556;18.728;2023-05-02T10:14:10;99711.84;;;21.44;37.15
51249;BME280;39642;47.556;18.728;2023-05-02T10:16:59;99712.03;;;21.41;37.58
51249;BME280;39642;47.556;18.728;2023-05-02T10:19:39;99711.25;;;21.39;37.62
51249;BME280;39642;47.556;18.728;2023-05-02T10:22:06;99700.00;;;21.35;37.65
51249;BME280;39642;47.556;18.728;2023-05-02T10:24:33;99704.53;;;21.33;38.46
51249;BME280;39642;47.556;18.728;2023-05-02T10:27:00;99698.28;;;21.34;37.98
51249;BME280;39642;47.556;18.728;2023-05-02T10:29:30;99698.19;;;21.36;37.45
51249;BME280;39642;47.556;18.728;2023-05-02T10:31:59;99704.34;;;21.36;38.08
51249;BME280;39642;47.556;18.728;2023-05-02T10:34:26;99694.63;;;21.37;38.14
51249;BME280;39642;47.556;18.728;2023-05-02T10:36:54;99685.06;;;21.49;39.38
51249;BME280;39642;47.556;18.728;2023-05-02T10:39:20;99699.09;;;21.63;39.06
51249;BME280;39642;47.556;18.728;2023-05-02T10:41:50;99699.38;;;21.73;38.45
51249;BME280;39642;47.556;18.728;2023-05-02T10:44:38;99705.72;;;21.71;38.40
51249;BME280;39642;47.556;18.728;2023-05-02T10:47:21;99700.53;;;21.69;39.10
51249;BME280;39642;47.556;18.728;2023-05-02T10:49:50;99700.81;;;21.65;39.50
51249;BME280;39642;47.556;18.728;2023-05-02T10:52:31;99705.56;;;21.59;39.19
51249;BME280;39642;47.556;18.728;2023-05-02T10:55:20;99704.81;;;21.57;39.72
51249;BME280;39642;47.556;18.728;2023-05-02T11:00:25;99710.97;;;21.58;39.23
51249;BME280;39642;47.556;18.728;2023-05-02T11:02:51;99706.41;;;21.60;40.17
51249;BME280;39642;47.556;18.728;2023-05-02T11:05:17;99711.72;;;21.60;40.51
51249;BME280;39642;47.556;18.728;2023-05-02T11:07:49;99706.59;;;21.57;40.38
51249;BME280;39642;47.556;18.728;2023-05-02T11:10:35;99705.97;;;21.53;40.52
51249;BME280;39642;47.556;18.728;2023-05-02T11:13:01;99707.09;;;21.49;41.10
51249;BME280;39642;47.556;18.728;2023-05-02T11:18:06;99704.00;;;21.42;41.43
51249;BME280;39642;47.556;18.728;2023-05-02T11:20:33;99704.06;;;21.41;41.35
51249;BME280;39642;47.556;18.728;2023-05-02T11:25:52;99702.75;;;21.34;41.77
51249;BME280;39642;47.556;18.728;2023-05-02T11:31:08;99694.03;;;21.32;41.46
51249;BME280;39642;47.556;18.728;2023-05-02T11:33:35;99695.75;;;21.33;40.70
51249;BME280;39642;47.556;18.728;2023-05-02T11:36:03;99697.44;;;21.34;41.03
51249;BME280;39642;47.556;18.728;2023-05-02T11:38:38;99698.19;;;21.36;40.87
51249;BME280;39642;47.556;18.728;2023-05-02T11:41:04;99704.84;;;21.43;39.53
51249;BME280;39642;47.556;18.728;2023-05-02T11:43:30;99704.06;;;21.55;40.46
51249;BME280;39642;47.556;18.728;2023-05-02T11:45:57;99698.34;;;21.61;38.26
51249;BME280;39642;47.556;18.728;2023-05-02T11:48:24;99696.47;;;21.63;38.69
51249;BME280;39642;47.556;18.728;2023-05-02T11:50:59;99691.91;;;21.66;39.07
51249;BME280;39642;47.556;18.728;2023-05-02T11:53:30;99689.25;;;21.66;40.64
51249;BME280;39642;47.556;18.728;2023-05-02T11:56:04;99692.66;;;21.68;38.50
51249;BME280;39642;47.556;18.728;2023-05-02T11:58:31;99690.84;;;21.68;39.19
51249;BME280;39642;47.556;18.728;2023-05-02T12:01:09;99686.44;;;21.69;38.47
51249;BME280;39642;47.556;18.728;2023-05-02T12:03:37;99697.78;;;21.71;37.63
51249;BME280;39642;47.556;18.728;2023-05-02T12:06:13;99688.47;;;21.78;36.79
51249;BME280;39642;47.556;18.728;2023-05-02T12:08:43;99682.22;;;21.79;36.97
51249;BME280;39642;47.556;18.728;2023-05-02T12:11:12;99677.75;;;21.79;37.75
51249;BME280;39642;47.556;18.728;2023-05-02T12:13:44;99675.31;;;21.76;39.68
51249;BME280;39642;47.556;18.728;2023-05-02T12:16:11;99674.78;;;21.71;38.81
51249;BME280;39642;47.556;18.728;2023-05-02T12:18:37;99668.72;;;21.69;39.89
51249;BME280;39642;47.556;18.728;2023-05-02T12:21:04;99666.16;;;21.68;39.89
51249;BME280;39642;47.556;18.728;2023-05-02T12:23:30;99668.06;;;21.66;39.65
51249;BME280;39642;47.556;18.728;2023-05-02T12:25:57;99658.34;;;21.66;39.53
51249;BME280;39642;47.556;18.728;2023-05-02T12:28:23;99656.41;;;21.68;39.14
51249;BME280;39642;47.556;18.728;2023-05-02T12:30:50;99659.06;;;21.68;41.34
51249;BME280;39642;47.556;18.728;2023-05-02T12:33:16;99660.88;;;21.68;41.00
51249;BME280;39642;47.556;18.728;2023-05-02T12:35:43;99659.28;;;21.65;40.55
51249;BME280;39642;47.556;18.728;2023-05-02T12:38:18;99655.78;;;21.65;41.15
51249;BME280;39642;47.556;18.728;2023-05-02T12:40:51;99646.09;;;21.63;41.03
51249;BME280;39642;47.556;18.728;2023-05-02T12:43:18;99652.38;;;21.62;41.00
51249;BME280;39642;47.556;18.728;2023-05-02T12:45:44;99653.22;;;21.63;41.44
51249;BME280;39642;47.556;18.728;2023-05-02T12:48:21;99649.72;;;21.62;41.50
51249;BME280;39642;47.556;18.728;2023-05-02T12:50:47;99651.41;;;21.63;41.07
51249;BME280;39642;47.556;18.728;2023-05-02T12:53:14;99652.38;;;21.62;40.87
51249;BME280;39642;47.556;18.728;2023-05-02T12:55:40;99649.72;;;21.62;40.40
51249;BME280;39642;47.556;18.728;2023-05-02T12:58:08;99648.00;;;21.61;40.35
51249;BME280;39642;47.556;18.728;2023-05-02T13:00:36;99647.16;;;21.61;40.51
51249;BME280;39642;47.556;18.728;2023-05-02T13:03:03;99645.34;;;21.61;40.86
51249;BME280;39642;47.556;18.728;2023-05-02T13:05:30;99655.03;;;21.62;40.83
51249;BME280;39642;47.556;18.728;2023-05-02T13:07:56;99661.06;;;21.65;40.90
51249;BME280;39642;47.556;18.728;2023-05-02T13:10:23;99654.81;;;21.66;40.27
51249;BME280;39642;47.556;18.728;2023-05-02T13:12:51;99652.16;;;21.66;40.39
51249;BME280;39642;47.556;18.728;2023-05-02T13:15:17;99644.34;;;21.64;40.35
51249;BME280;39642;47.556;18.728;2023-05-02T13:17:44;99649.63;;;21.64;40.60
51249;BME280;39642;47.556;18.728;2023-05-02T13:20:10;99641.78;;;21.62;40.33
51249;BME280;39642;47.556;18.728;2023-05-02T13:22:36;99639.12;;;21.62;40.14